• Join FlightAware (Why Join?)
  • Login
  • US Flag 
04:12AM EST


 

Airport Tracker/Info


-or-


 

Live Flight TrackerFlight Track Log ✈ N110GW ✈ 01-Nov-2013 ✈ KPMP - KAPF

Flight Track Log - Related Links

Times and Time Zones

All times are in EDT time to prevent confusion due to time zone crossing. See the N110GW flight status page for this flight to view local times or setup timezone preferences in your user account.

Time Position Orientation Groundspeed Altitude Reporting Facility
EDT Latitude Longitude Course Direction KTS MPH feet Rate Location/Type
03:02PM 26.2364 -80.1064 133° Southeast 112 129 600  Level Miami Center
03:03PM 26.2325 -80.1017 133° Southeast 109 125 800 1,380 Climbing Miami Center
03:04PM 26.2439 -80.0581 74° East 166 191 2,300 1,020 Climbing Miami Center
03:05PM 26.2744 -80.0936 314° West 225 259 3,000 780 Climbing Miami Center
03:06PM 26.2814 -80.1539 277° West 192 221 4,000 480 Climbing Miami Center
03:07PM 26.2922 -80.2214 280° West 232 267 4,000 780 Level Miami Center
03:08PM 26.2931 -80.2839 271° West 165 190 5,700 1,740 Climbing Miami Center
03:09PM 26.2917 -80.3350 268° West 162 186 7,500 1,740 Climbing Miami Center
03:09PM 26.2917 -80.3372 270° West 161 185 7,500 480 Level Miami Center
03:10PM 26.2906 -80.3836 268° West 226 260 8,000 480 Climbing Miami Center
03:10PM 26.2903 -80.3953 268° West 207 238 8,000  Level Miami Center
03:11PM 26.2825 -80.4597 262° West 232 267 8,000  Level Miami Center
03:11PM 26.2822 -80.4667 267° West 239 275 8,000  Level Miami Center
03:12PM 26.2850 -80.5247 273° West 246 283 8,000  Level Miami Center
03:13PM 26.2808 -80.6081 267° West 246 283 8,000  Level Miami Center
03:14PM 26.2769 -80.6750 266° West 246 283 8,000  Level Miami Center
03:15PM 26.2706 -80.7583 265° West 246 283 8,000  Level Miami Center
03:16PM 26.2647 -80.8253 264° West 246 283 8,000  Level Miami Center
03:17PM 26.2583 -80.9061 265° West 246 283 8,000  Level Miami Center
03:18PM 26.2522 -80.9706 264° West 246 283 8,000 -660 Level Miami Center
03:19PM 26.2456 -81.0583 265° West 248 285 6,700 -1,500 Descending Miami Center
03:20PM 26.2411 -81.1394 267° West 262 302 5,000 -1,200 Descending Miami Center
03:21PM 26.2350 -81.2108 265° West 255 293 4,400 -540 Descending Miami Center
03:22PM 26.2308 -81.2733 266° West 230 265 4,000 -240 Descending Miami Center
03:23PM 26.2269 -81.3378 266° West 230 265 4,000  Level Miami Center
03:24PM 26.2206 -81.4072 264° West 225 259 4,000 -120 Level Miami Center
03:25PM 26.2225 -81.4744 272° West 225 259 3,800 -960 Descending Miami Center
03:26PM 26.2286 -81.5439 276° West 231 266 2,100 -900 Descending Miami Center
03:27PM 26.2331 -81.6067 275° West 218 251 2,000 -60 Descending Miami Center
03:28PM 26.2353 -81.6669 272° West 205 236 2,000 -300 Level Miami Center
03:29PM 26.2150 -81.7078 241° Southwest 173 199 1,500 -540 Descending Miami Center
03:31PM 26.1500 -81.7667 261° West  Level FlightAware Approximate
03:38PM 26.1524 -81.7756 261° West  Level Estimated
03:39PM 26.1524 -81.7756 261° West  Level Estimated